Time,TemperatureF,DewpointF,PressureIn,WindDirection,WindDirectionDegrees,WindSpeedMPH,WindSpeedGustMPH,Humidity,HourlyPrecipIn,Conditions,Clouds,dailyrainin,SoftwareType,DateUTC
2013-05-14 00:02:00,46.4,40.2,30.04,West,279,2.3,2.3,79,0.00,RA,,0.00,WeatherDisplay:10.37,2013-05-14 07:02:00,
2013-05-14 00:07:00,46.4,39.9,30.04,West,279,4.6,4.6,78,0.00,RA,,0.00,WeatherDisplay:10.37,2013-05-14 07:07:00,
2013-05-14 00:12:00,46.3,39.8,30.04,West,279,4.0,4.0,78,0.00,OVC,,0.00,WeatherDisplay:10.37,2013-05-14 07:12:00,
2013-05-14 00:17:00,46.1,39.6,30.04,West,279,6.0,6.0,78,0.00,OVC,,0.00,WeatherDisplay:10.37,2013-05-14 07:17:00,
2013-05-14 00:22:00,46.4,38.9,30.04,West,276,15.0,15.0,75,0.00,OVC,,0.00,WeatherDisplay:10.37,2013-05-14 07:22:00,
2013-05-14 00:27:00,46.4,39.2,30.05,West,280,4.0,4.0,76,0.00,OVC,,0.00,WeatherDisplay:10.37,2013-05-14 07:27:00,
2013-05-14 00:32:00,46.3,39.1,30.05,West,280,3.5,3.5,76,0.00,OVC,,0.00,WeatherDisplay:10.37,2013-05-14 07:32:00,
2013-05-14 00:37:00,46.1,39.0,30.05,WNW,294,3.0,3.0,76,0.00,OVC,,0.00,WeatherDisplay:10.37,2013-05-14 07:37:00,
2013-05-14 00:42:00,46.0,38.9,30.05,WNW,302,4.0,4.0,76,0.00,OVC,,0.00,WeatherDisplay:10.37,2013-05-14 07:42:00,
2013-05-14 00:47:00,46.0,38.2,30.04,NW,321,3.5,3.5,74,0.00,OVC,,0.00,WeatherDisplay:10.37,2013-05-14 07:47:00,
2013-05-14 00:52:00,46.0,38.2,30.05,NW,309,3.5,3.5,74,0.00,OVC,,0.00,WeatherDisplay:10.37,2013-05-14 07:52:00,
2013-05-14 00:57:00,45.8,38.3,30.05,NW,309,3.5,3.5,75,0.00,OVC,,0.00,WeatherDisplay:10.37,2013-05-14 07:57:00,
2013-05-14 01:02:00,45.6,38.1,30.06,NW,309,4.6,4.6,75,0.00,SCT,,0.00,WeatherDisplay:10.37,2013-05-14 08:02:00,
2013-05-14 01:07:00,45.4,38.3,30.06,NW,305,4.6,4.6,76,0.00,SCT,,0.00,WeatherDisplay:10.37,2013-05-14 08:07:00,
2013-05-14 01:12:00,45.2,38.1,30.06,NW,305,4.0,4.0,76,0.00,SCT,,0.00,WeatherDisplay:10.37,2013-05-14 08:12:00,
2013-05-14 01:17:00,45.1,37.6,30.07,WNW,300,4.6,4.6,75,0.00,SCT,,0.00,WeatherDisplay:10.37,2013-05-14 08:17:00,
2013-05-14 01:22:00,45.1,38.0,30.07,WNW,301,4.0,4.0,76,0.00,SCT,,0.00,WeatherDisplay:10.37,2013-05-14 08:22:00,
2013-05-14 01:27:00,45.0,37.9,30.07,WNW,301,2.3,2.3,76,0.00,SCT,,0.00,WeatherDisplay:10.37,2013-05-14 08:27:00,
2013-05-14 01:32:00,44.9,37.5,30.07,WNW,300,3.5,3.5,75,0.00,SCT,,0.00,WeatherDisplay:10.37,2013-05-14 08:32:00,
2013-05-14 01:38:00,44.7,37.6,30.08,NW,304,3.5,3.5,76,0.00,SCT,,0.00,WeatherDisplay:10.37,2013-05-14 08:38:00,
2013-05-14 01:43:00,44.6,37.5,30.07,NW,304,3.5,3.5,76,0.00,SCT,,0.00,WeatherDisplay:10.37,2013-05-14 08:43:00,
2013-05-14 01:48:00,44.5,37.7,30.07,NW,306,3.5,3.5,77,0.00,SCT,,0.00,WeatherDisplay:10.37,2013-05-14 08:48:00,
2013-05-14 01:53:00,44.3,37.5,30.08,NW,306,3.5,3.5,77,0.00,SCT,,0.00,WeatherDisplay:10.37,2013-05-14 08:53:00,
2013-05-14 01:58:00,44.1,37.3,30.08,NW,306,3.0,3.0,77,0.00,SCT,,0.00,WeatherDisplay:10.37,2013-05-14 08:58:00,
2013-05-14 02:03:00,44.0,37.3,30.10,NW,306,2.3,2.3,77,0.00,SCT,,0.00,WeatherDisplay:10.37,2013-05-14 09:03:00,
2013-05-14 02:08:00,43.9,37.2,30.10,NW,306,2.3,2.3,77,0.00,SCT,,0.00,WeatherDisplay:10.37,2013-05-14 09:08:00,
2013-05-14 02:13:00,43.9,37.2,30.10,NW,306,1.1,1.1,77,0.00,SCT,,0.00,WeatherDisplay:10.37,2013-05-14 09:13:00,
2013-05-14 02:18:00,43.9,37.2,30.10,NW,306,0.0,0.0,77,0.00,SCT,,0.00,WeatherDisplay:10.37,2013-05-14 09:18:00,
2013-05-14 02:23:00,43.8,37.4,30.10,NW,306,1.1,1.1,78,0.00,SCT,,0.00,WeatherDisplay:10.37,2013-05-14 09:23:00,
2013-05-14 02:28:00,43.7,37.3,30.10,NW,306,2.3,2.3,78,0.00,SCT,,0.00,WeatherDisplay:10.37,2013-05-14 09:28:00,
2013-05-14 02:33:00,43.5,37.1,30.10,NW,306,0.0,0.0,78,0.00,SCT,,0.00,WeatherDisplay:10.37,2013-05-14 09:33:00,
2013-05-14 02:38:00,43.4,37.0,30.11,NW,306,2.3,2.3,78,0.00,SCT,,0.00,WeatherDisplay:10.37,2013-05-14 09:38:00,
2013-05-14 02:43:00,43.2,36.8,30.11,NW,306,0.0,0.0,78,0.00,SCT,,0.00,WeatherDisplay:10.37,2013-05-14 09:43:00,
2013-05-14 02:48:00,43.1,37.0,30.11,NW,306,0.0,0.0,79,0.00,SCT,,0.00,WeatherDisplay:10.37,2013-05-14 09:48:00,
2013-05-14 02:53:00,43.0,36.9,30.11,NW,306,3.5,3.5,79,0.00,SCT,,0.00,WeatherDisplay:10.37,2013-05-14 09:53:00,
2013-05-14 02:58:00,43.0,36.9,30.11,NW,306,4.0,4.0,79,0.00,SCT,,0.00,WeatherDisplay:10.37,2013-05-14 09:58:00,
2013-05-14 03:03:00,42.9,36.8,30.14,NW,306,0.0,0.0,79,0.00,CLR,,0.00,WeatherDisplay:10.37,2013-05-14 10:03:00,
2013-05-14 03:08:00,42.7,37.0,30.14,NW,306,2.3,2.3,80,0.00,CLR,,0.00,WeatherDisplay:10.37,2013-05-14 10:08:00,
2013-05-14 03:13:00,42.6,36.9,30.14,NW,306,0.0,0.0,80,0.00,CLR,,0.00,WeatherDisplay:10.37,2013-05-14 10:13:00,
2013-05-14 03:18:00,42.5,36.8,30.14,NW,306,0.0,0.0,80,0.00,CLR,,0.00,WeatherDisplay:10.37,2013-05-14 10:18:00,
2013-05-14 03:23:00,42.4,36.7,30.14,NW,306,0.0,0.0,80,0.00,CLR,,0.00,WeatherDisplay:10.37,2013-05-14 10:23:00,
2013-05-14 03:28:00,42.3,36.6,30.14,NW,306,0.0,0.0,80,0.00,CLR,,0.00,WeatherDisplay:10.37,2013-05-14 10:28:00,
2013-05-14 03:33:00,42.2,36.5,30.14,NW,306,0.0,0.0,80,0.00,CLR,,0.00,WeatherDisplay:10.37,2013-05-14 10:33:00,
2013-05-14 03:38:00,42.0,36.3,30.14,NW,306,0.0,0.0,80,0.00,CLR,,0.00,WeatherDisplay:10.37,2013-05-14 10:38:00,
2013-05-14 03:43:00,42.0,36.3,30.14,NW,306,4.6,4.6,80,0.00,CLR,,0.00,WeatherDisplay:10.37,2013-05-14 10:43:00,
2013-05-14 03:48:00,41.8,36.4,30.14,NW,306,2.3,2.3,81,0.00,CLR,,0.00,WeatherDisplay:10.37,2013-05-14 10:48:00,
2013-05-14 03:53:00,41.8,36.4,30.14,NW,306,3.5,3.5,81,0.00,CLR,,0.00,WeatherDisplay:10.37,2013-05-14 10:53:00,
2013-05-14 03:58:00,42.0,36.6,30.14,NW,306,0.0,0.0,81,0.00,CLR,,0.00,WeatherDisplay:10.37,2013-05-14 10:58:00,
2013-05-14 04:03:00,42.0,36.3,30.16,NW,306,3.5,3.5,80,0.00,CLR,,0.00,WeatherDisplay:10.37,2013-05-14 11:03:00,
2013-05-14 04:08:00,41.9,36.2,30.16,NW,306,4.6,4.6,80,0.00,CLR,,0.00,WeatherDisplay:10.37,2013-05-14 11:08:00,
2013-05-14 04:13:00,41.6,35.9,30.16,NW,306,4.0,4.0,80,0.00,CLR,,0.00,WeatherDisplay:10.37,2013-05-14 11:13:00,
2013-05-14 04:18:00,41.6,35.9,30.16,NW,306,3.5,3.5,80,0.00,CLR,,0.00,WeatherDisplay:10.37,2013-05-14 11:18:00,
2013-05-14 04:23:00,41.7,36.0,30.16,NW,306,3.5,3.5,80,0.00,CLR,,0.00,WeatherDisplay:10.37,2013-05-14 11:23:00,
2013-05-14 04:28:00,41.5,35.8,30.16,WNW,288,0.0,0.0,80,0.00,CLR,,0.00,WeatherDisplay:10.37,2013-05-14 11:28:00,
2013-05-14 04:33:00,41.2,35.5,30.16,WNW,288,5.0,5.0,80,0.00,CLR,,0.00,WeatherDisplay:10.37,2013-05-14 11:33:00,
2013-05-14 04:38:00,40.9,35.5,30.16,WNW,288,3.5,3.5,81,0.00,CLR,,0.00,WeatherDisplay:10.37,2013-05-14 11:38:00,
2013-05-14 04:43:00,40.9,35.5,30.16,WNW,288,0.0,0.0,81,0.00,CLR,,0.00,WeatherDisplay:10.37,2013-05-14 11:43:00,
2013-05-14 04:48:00,40.9,35.2,30.16,WNW,288,3.5,3.5,80,0.00,CLR,,0.00,WeatherDisplay:10.37,2013-05-14 11:48:00,
2013-05-14 04:53:00,40.9,35.2,30.16,WNW,288,3.5,3.5,80,0.00,CLR,,0.00,WeatherDisplay:10.37,2013-05-14 11:53:00,
2013-05-14 04:58:00,40.9,35.2,30.16,WNW,288,0.0,0.0,80,0.00,CLR,,0.00,WeatherDisplay:10.37,2013-05-14 11:58:00,
2013-05-14 05:03:00,40.9,35.2,30.17,WNW,288,3.5,3.5,80,0.00,CLR,,0.00,WeatherDisplay:10.37,2013-05-14 12:03:00,
2013-05-14 05:08:00,41.1,35.1,30.17,WNW,288,2.0,2.0,79,0.00,CLR,,0.00,WeatherDisplay:10.37,2013-05-14 12:08:00,
2013-05-14 05:13:00,41.2,35.5,30.16,WNW,288,2.3,2.3,80,0.00,CLR,,0.00,WeatherDisplay:10.37,2013-05-14 12:13:00,
2013-05-14 05:18:00,41.2,35.5,30.17,WNW,288,2.3,2.3,80,0.00,CLR,,0.00,WeatherDisplay:10.37,2013-05-14 12:18:00,
2013-05-14 05:23:00,41.2,35.5,30.17,WNW,288,2.3,2.3,80,0.00,CLR,,0.00,WeatherDisplay:10.37,2013-05-14 12:23:00,
2013-05-14 05:28:00,41.3,35.3,30.17,WNW,288,0.0,0.0,79,0.00,CLR,,0.00,WeatherDisplay:10.37,2013-05-14 12:28:00,
2013-05-14 05:33:00,41.4,35.4,30.17,WNW,288,0.0,0.0,79,0.00,CLR,,0.00,WeatherDisplay:10.37,2013-05-14 12:33:00,
2013-05-14 05:38:00,41.5,35.5,30.17,WNW,288,1.1,0.0,79,0.00,CLR,,0.00,WeatherDisplay:10.37,2013-05-14 12:38:00,
2013-05-14 05:43:00,41.5,35.5,30.16,WNW,288,0.0,0.0,79,0.00,CLR,,0.00,WeatherDisplay:10.37,2013-05-14 12:43:00,
2013-05-14 05:48:00,41.5,35.8,30.16,WNW,288,0.0,0.0,80,0.00,CLR,,0.00,WeatherDisplay:10.37,2013-05-14 12:48:00,
2013-05-14 05:53:00,41.5,35.5,30.16,WNW,288,0.0,0.0,79,0.00,CLR,,0.00,WeatherDisplay:10.37,2013-05-14 12:53:00,
2013-05-14 05:58:00,41.5,35.5,30.16,West,281,1.0,0.0,79,0.00,CLR,,0.00,WeatherDisplay:10.37,2013-05-14 12:58:00,
2013-05-14 06:03:00,41.6,35.9,30.15,West,281,0.0,0.0,80,0.00,CLR,,0.00,WeatherDisplay:10.37,2013-05-14 13:03:00,
2013-05-14 06:08:00,41.6,35.9,30.15,West,281,0.0,0.0,80,0.00,CLR,,0.00,WeatherDisplay:10.37,2013-05-14 13:08:00,
2013-05-14 06:13:00,41.7,35.7,30.16,West,281,1.1,1.1,79,0.00,CLR,,0.00,WeatherDisplay:10.37,2013-05-14 13:13:00,
2013-05-14 06:18:00,41.8,36.1,30.16,West,280,1.1,0.0,80,0.00,CLR,,0.00,WeatherDisplay:10.37,2013-05-14 13:18:00,
2013-05-14 06:23:00,42.0,36.3,30.15,West,281,0.0,0.0,80,0.00,CLR,,0.00,WeatherDisplay:10.37,2013-05-14 13:23:00,
2013-05-14 06:28:00,42.3,36.3,30.15,West,280,1.1,1.1,79,0.00,CLR,,0.00,WeatherDisplay:10.37,2013-05-14 13:28:00,
2013-05-14 06:33:00,42.7,36.6,30.15,West,281,0.0,0.0,79,0.00,CLR,,0.00,WeatherDisplay:10.37,2013-05-14 13:33:00,
2013-05-14 06:38:00,43.1,37.3,30.15,West,281,1.1,0.0,80,0.00,CLR,,0.00,WeatherDisplay:10.37,2013-05-14 13:38:00,
2013-05-14 06:43:00,43.6,37.8,30.14,West,280,0.0,0.0,80,0.00,CLR,,0.00,WeatherDisplay:10.37,2013-05-14 13:43:00,
2013-05-14 06:48:00,44.4,38.6,30.14,West,281,0.0,0.0,80,0.00,CLR,,0.00,WeatherDisplay:10.37,2013-05-14 13:48:00,
2013-05-14 06:53:00,45.1,38.3,30.15,West,281,0.0,0.1,77,0.00,CLR,,0.00,WeatherDisplay:10.37,2013-05-14 13:53:00,
2013-05-14 06:58:00,45.6,38.1,30.14,West,281,2.0,2.0,75,0.00,CLR,,0.00,WeatherDisplay:10.37,2013-05-14 13:58:00,
2013-05-14 07:03:00,45.8,38.0,30.14,West,281,3.0,3.0,74,0.00,CLR,,0.00,WeatherDisplay:10.37,2013-05-14 14:03:00,
2013-05-14 07:09:00,45.9,37.7,30.14,NNE,13,5.0,5.0,73,0.00,CLR,,0.00,WeatherDisplay:10.37,2013-05-14 14:09:00,
2013-05-14 07:14:00,45.8,37.3,30.13,NE,41,5.8,5.8,72,0.00,CLR,,0.00,WeatherDisplay:10.37,2013-05-14 14:14:00,
2013-05-14 07:19:00,45.9,37.4,30.13,NNE,30,4.6,4.6,72,0.00,CLR,,0.00,WeatherDisplay:10.37,2013-05-14 14:19:00,
2013-05-14 07:24:00,46.6,38.4,30.12,NNE,30,4.0,4.0,73,0.00,CLR,,0.00,WeatherDisplay:10.37,2013-05-14 14:24:00,
2013-05-14 07:29:00,47.0,37.4,30.13,NE,39,5.8,5.8,69,0.00,CLR,,0.00,WeatherDisplay:10.37,2013-05-14 14:29:00,
2013-05-14 07:34:00,46.3,35.9,30.13,NE,55,3.5,3.5,67,0.00,CLR,,0.00,WeatherDisplay:10.37,2013-05-14 14:34:00,
2013-05-14 07:39:00,45.7,36.5,30.13,ENE,57,2.3,2.3,70,0.00,CLR,,0.00,WeatherDisplay:10.37,2013-05-14 14:39:00,
2013-05-14 07:44:00,45.7,37.2,30.13,East,93,3.5,3.7,72,0.00,CLR,,0.00,WeatherDisplay:10.37,2013-05-14 14:44:00,
2013-05-14 07:49:00,45.9,37.7,30.13,ESE,102,4.6,4.6,73,0.00,CLR,,0.00,WeatherDisplay:10.37,2013-05-14 14:49:00,
2013-05-14 07:54:00,46.2,38.0,30.13,ENE,78,2.3,2.3,73,0.00,CLR,,0.00,WeatherDisplay:10.37,2013-05-14 14:54:00,
2013-05-14 07:59:00,46.7,38.1,30.12,East,80,2.3,2.3,72,0.00,CLR,,0.00,WeatherDisplay:10.37,2013-05-14 14:59:00,
2013-05-14 08:04:00,47.1,37.1,30.13,SSE,153,3.5,3.5,68,0.00,CLR,,0.00,WeatherDisplay:10.37,2013-05-14 15:04:00,
2013-05-14 08:09:00,47.2,37.9,30.13,SSE,149,3.5,3.5,70,0.00,CLR,,0.00,WeatherDisplay:10.37,2013-05-14 15:09:00,
2013-05-14 08:14:00,47.5,38.2,30.13,SSE,149,3.5,3.5,70,0.00,CLR,,0.00,WeatherDisplay:10.37,2013-05-14 15:14:00,
2013-05-14 08:19:00,47.0,37.4,30.13,SSE,159,1.1,1.1,69,0.00,CLR,,0.00,WeatherDisplay:10.37,2013-05-14 15:19:00,
2013-05-14 08:24:00,47.2,37.5,30.13,SE,144,4.0,4.0,69,0.00,CLR,,0.00,WeatherDisplay:10.37,2013-05-14 15:24:00,
2013-05-14 08:29:00,47.3,38.7,30.13,SE,141,1.1,1.1,72,0.00,CLR,,0.00,WeatherDisplay:10.37,2013-05-14 15:29:00,
2013-05-14 08:34:00,48.1,39.1,30.13,SE,141,2.3,2.3,71,0.00,CLR,,0.00,WeatherDisplay:10.37,2013-05-14 15:34:00,
2013-05-14 08:39:00,48.8,38.7,30.12,East,88,3.5,3.5,68,0.00,CLR,,0.00,WeatherDisplay:10.37,2013-05-14 15:39:00,
2013-05-14 08:44:00,48.6,38.1,30.12,ENE,59,3.5,3.5,67,0.00,CLR,,0.00,WeatherDisplay:10.37,2013-05-14 15:44:00,
2013-05-14 08:49:00,48.8,39.1,30.11,NE,50,5.8,5.8,69,0.00,CLR,,0.00,WeatherDisplay:10.37,2013-05-14 15:49:00,
2013-05-14 08:54:00,49.7,40.3,30.12,NNE,25,6.9,6.9,70,0.00,CLR,,0.00,WeatherDisplay:10.37,2013-05-14 15:54:00,
2013-05-14 08:59:00,49.9,39.8,30.12,ENE,64,9.0,9.0,68,0.00,CLR,,0.00,WeatherDisplay:10.37,2013-05-14 15:59:00,
2013-05-14 09:04:00,48.0,38.3,30.13,ENE,71,3.5,3.5,69,0.00,CLR,,0.00,WeatherDisplay:10.37,2013-05-14 16:04:00,
2013-05-14 09:09:00,47.6,39.0,30.13,ENE,76,6.9,6.9,72,0.00,CLR,,0.00,WeatherDisplay:10.37,2013-05-14 16:09:00,
2013-05-14 09:14:00,47.3,38.0,30.14,East,88,6.9,6.9,70,0.00,CLR,,0.00,WeatherDisplay:10.37,2013-05-14 16:14:00,
2013-05-14 09:19:00,46.9,38.0,30.14,East,81,3.5,3.5,71,0.00,CLR,,0.00,WeatherDisplay:10.37,2013-05-14 16:19:00,
2013-05-14 09:24:00,47.6,39.0,30.14,East,80,2.3,2.3,72,0.00,CLR,,0.00,WeatherDisplay:10.37,2013-05-14 16:24:00,
2013-05-14 09:29:00,49.0,40.7,30.13,NNE,18,3.5,3.5,73,0.00,CLR,,0.00,WeatherDisplay:10.37,2013-05-14 16:29:00,
2013-05-14 09:34:00,49.9,40.1,30.13,North,360,5.8,5.8,69,0.00,CLR,,0.00,WeatherDisplay:10.37,2013-05-14 16:34:00,
2013-05-14 09:39:00,50.3,39.8,30.13,NNW,333,5.8,5.8,67,0.00,CLR,,0.00,WeatherDisplay:10.37,2013-05-14 16:39:00,
2013-05-14 09:44:00,50.8,42.1,30.12,North,355,6.9,6.9,72,0.00,CLR,,0.00,WeatherDisplay:10.37,2013-05-14 16:44:00,
2013-05-14 09:49:00,52.3,42.8,30.11,NNE,26,5.0,5.0,70,0.00,CLR,,0.00,WeatherDisplay:10.37,2013-05-14 16:49:00,
2013-05-14 09:55:00,53.2,41.7,30.11,NW,323,5.8,5.8,65,0.00,CLR,,0.00,WeatherDisplay:10.37,2013-05-14 16:55:00,
2013-05-14 10:00:00,53.1,41.6,30.10,NNE,13,2.3,2.3,65,0.00,CLR,,0.00,WeatherDisplay:10.37,2013-05-14 17:00:00,
2013-05-14 10:05:00,53.0,41.9,30.10,NW,312,6.0,6.0,66,0.00,CLR,,0.00,WeatherDisplay:10.37,2013-05-14 17:05:00,
2013-05-14 10:10:00,53.5,41.6,30.10,NW,316,6.9,6.9,64,0.00,CLR,,0.00,WeatherDisplay:10.37,2013-05-14 17:10:00,
2013-05-14 10:15:00,53.6,41.3,30.09,NW,306,5.8,5.8,63,0.00,CLR,,0.00,WeatherDisplay:10.37,2013-05-14 17:15:00,
2013-05-14 10:20:00,53.8,41.1,30.09,North,10,6.9,6.9,62,0.00,CLR,,0.00,WeatherDisplay:10.37,2013-05-14 17:20:00,
2013-05-14 10:25:00,53.9,41.6,30.09,NW,318,4.6,4.6,63,0.00,CLR,,0.00,WeatherDisplay:10.37,2013-05-14 17:25:00,
2013-05-14 10:30:00,53.3,41.4,30.10,NNE,13,3.5,3.5,64,0.00,CLR,,0.00,WeatherDisplay:10.37,2013-05-14 17:30:00,
2013-05-14 10:35:00,52.9,41.0,30.10,NW,319,4.0,4.0,64,0.00,CLR,,0.00,WeatherDisplay:10.37,2013-05-14 17:35:00,
2013-05-14 10:40:00,53.2,40.1,30.10,NW,314,3.5,3.5,61,0.00,CLR,,0.00,WeatherDisplay:10.37,2013-05-14 17:40:00,
2013-05-14 10:45:00,51.8,38.8,30.10,WNW,297,2.3,2.3,61,0.00,CLR,,0.00,WeatherDisplay:10.37,2013-05-14 17:45:00,
2013-05-14 10:50:00,53.0,41.5,30.10,NNE,32,3.5,3.5,65,0.00,CLR,,0.00,WeatherDisplay:10.37,2013-05-14 17:50:00,
2013-05-14 10:55:00,54.3,40.7,30.09,North,360,3.5,3.5,60,0.00,CLR,,0.00,WeatherDisplay:10.37,2013-05-14 17:55:00,
2013-05-14 11:00:00,53.8,40.2,30.10,NNW,333,7.0,7.0,60,0.00,CLR,,0.00,WeatherDisplay:10.37,2013-05-14 18:00:00,
2013-05-14 11:05:00,53.9,42.0,30.09,NW,317,3.5,3.5,64,0.00,CLR,,0.00,WeatherDisplay:10.37,2013-05-14 18:05:00,
2013-05-14 11:10:00,54.8,43.7,30.09,North,350,6.0,6.0,66,0.00,CLR,,0.00,WeatherDisplay:10.37,2013-05-14 18:10:00,
2013-05-14 11:15:00,55.4,41.7,30.09,North,360,6.0,6.0,60,0.00,CLR,,0.00,WeatherDisplay:10.37,2013-05-14 18:15:00,
2013-05-14 11:20:00,55.1,41.0,30.09,North,360,5.0,5.0,59,0.00,CLR,,0.00,WeatherDisplay:10.37,2013-05-14 18:20:00,
2013-05-14 11:25:00,55.1,41.5,30.09,WNW,301,10.4,10.4,60,0.00,CLR,,0.00,WeatherDisplay:10.37,2013-05-14 18:25:00,
2013-05-14 11:30:00,55.5,42.7,30.09,NNE,14,11.5,11.5,62,0.00,CLR,,0.00,WeatherDisplay:10.37,2013-05-14 18:30:00,
2013-05-14 11:35:00,55.5,41.8,30.09,NNE,13,5.8,5.8,60,0.00,CLR,,0.00,WeatherDisplay:10.37,2013-05-14 18:35:00,
2013-05-14 11:40:00,54.7,41.1,30.09,NNE,14,3.5,3.5,60,0.00,CLR,,0.00,WeatherDisplay:10.37,2013-05-14 18:40:00,
2013-05-14 11:45:00,55.2,40.2,30.08,West,259,5.0,5.0,57,0.00,CLR,,0.00,WeatherDisplay:10.37,2013-05-14 18:45:00,
2013-05-14 11:50:00,54.9,42.5,30.08,NNW,343,6.9,6.9,63,0.00,CLR,,0.00,WeatherDisplay:10.37,2013-05-14 18:50:00,
2013-05-14 11:55:00,54.6,40.6,30.08,NW,305,5.8,5.8,59,0.00,CLR,,0.00,WeatherDisplay:10.37,2013-05-14 18:55:00,
2013-05-14 12:00:00,54.9,39.9,30.09,NNW,345,4.0,4.0,57,0.00,CLR,,0.00,WeatherDisplay:10.37,2013-05-14 19:00:00,
2013-05-14 12:05:00,54.0,41.7,30.08,WNW,302,3.5,3.5,63,0.00,CLR,,0.00,WeatherDisplay:10.37,2013-05-14 19:05:00,
2013-05-14 12:10:00,54.5,40.5,30.08,North,5,12.7,12.7,59,0.00,CLR,,0.00,WeatherDisplay:10.37,2013-05-14 19:10:00,
2013-05-14 12:15:00,55.0,42.2,30.08,North,9,5.8,5.8,62,0.00,CLR,,0.00,WeatherDisplay:10.37,2013-05-14 19:15:00,
2013-05-14 12:20:00,54.8,41.6,30.08,NNE,13,15.0,15.0,61,0.00,CLR,,0.00,WeatherDisplay:10.37,2013-05-14 19:20:00,
2013-05-14 12:25:00,53.9,40.8,30.08,NE,36,13.8,13.8,61,0.00,CLR,,0.00,WeatherDisplay:10.37,2013-05-14 19:25:00,
2013-05-14 12:30:00,53.0,40.3,30.09,NNE,24,16.1,16.1,62,0.00,CLR,,0.00,WeatherDisplay:10.37,2013-05-14 19:30:00,
2013-05-14 12:35:00,52.8,39.7,30.09,North,9,12.7,12.7,61,0.00,CLR,,0.00,WeatherDisplay:10.37,2013-05-14 19:35:00,
2013-05-14 12:40:00,53.3,40.6,30.08,NNE,23,6.9,6.9,62,0.00,CLR,,0.00,WeatherDisplay:10.37,2013-05-14 19:40:00,
2013-05-14 12:45:00,53.4,39.9,30.08,North,355,4.6,4.6,60,0.00,CLR,,0.00,WeatherDisplay:10.37,2013-05-14 19:45:00,
2013-05-14 12:51:00,53.8,40.7,30.08,NNE,24,11.0,11.0,61,0.00,CLR,,0.00,WeatherDisplay:10.37,2013-05-14 19:51:00,
2013-05-14 12:56:00,52.9,39.8,30.08,NE,36,10.4,10.4,61,0.00,CLR,,0.00,WeatherDisplay:10.37,2013-05-14 19:56:00,
2013-05-14 13:01:00,52.8,39.7,30.09,North,350,13.8,13.8,61,0.00,CLR,,0.00,WeatherDisplay:10.37,2013-05-14 20:01:00,
2013-05-14 13:06:00,53.1,39.6,30.09,NNE,18,15.0,15.0,60,0.00,BKN,,0.00,WeatherDisplay:10.37,2013-05-14 20:06:00,
2013-05-14 13:11:00,53.5,41.2,30.08,West,276,6.9,6.9,63,0.00,BKN,,0.00,WeatherDisplay:10.37,2013-05-14 20:11:00,
2013-05-14 13:16:00,55.2,42.4,30.08,North,11,11.5,11.5,62,0.00,BKN,,0.00,WeatherDisplay:10.37,2013-05-14 20:16:00,
2013-05-14 13:21:00,56.1,42.8,30.07,NNE,14,9.2,9.2,61,0.00,BKN,,0.00,WeatherDisplay:10.37,2013-05-14 20:21:00,
2013-05-14 13:26:00,56.8,40.8,30.07,West,267,4.6,4.6,55,0.00,BKN,,0.00,WeatherDisplay:10.37,2013-05-14 20:26:00,
2013-05-14 13:31:00,57.2,40.7,30.06,ENE,57,9.2,9.2,54,0.00,BKN,,0.00,WeatherDisplay:10.37,2013-05-14 20:31:00,
2013-05-14 13:36:00,56.6,41.5,30.06,North,355,10.4,10.4,57,0.00,BKN,,0.00,WeatherDisplay:10.37,2013-05-14 20:36:00,
2013-05-14 13:41:00,56.8,38.9,30.06,NE,45,11.5,11.5,51,0.00,BKN,,0.00,WeatherDisplay:10.37,2013-05-14 20:41:00,
2013-05-14 13:46:00,56.7,39.7,30.06,North,9,11.5,11.5,53,0.00,BKN,,0.00,WeatherDisplay:10.37,2013-05-14 20:46:00,
2013-05-14 13:51:00,57.2,38.7,30.06,NNW,329,11.5,11.5,50,0.00,BKN,,0.00,WeatherDisplay:10.37,2013-05-14 20:51:00,
2013-05-14 13:56:00,57.3,40.3,30.06,WNW,288,5.0,5.0,53,0.00,BKN,,0.00,WeatherDisplay:10.37,2013-05-14 20:56:00,
2013-05-14 14:01:00,58.0,41.4,30.06,WSW,237,4.6,4.6,54,0.00,FEW,,0.00,WeatherDisplay:10.37,2013-05-14 21:01:00,
2013-05-14 14:06:00,57.8,41.3,30.06,North,360,6.9,6.9,54,0.00,FEW,,0.00,WeatherDisplay:10.37,2013-05-14 21:06:00,
2013-05-14 14:11:00,57.9,40.9,30.06,NW,326,6.0,6.0,53,0.00,FEW,,0.00,WeatherDisplay:10.37,2013-05-14 21:11:00,
2013-05-14 14:16:00,58.1,39.5,30.06,NNE,18,12.7,12.7,50,0.00,FEW,,0.00,WeatherDisplay:10.37,2013-05-14 21:16:00,
2013-05-14 14:21:00,58.3,40.2,30.06,NW,324,13.8,13.8,51,0.00,FEW,,0.00,WeatherDisplay:10.37,2013-05-14 21:21:00,
2013-05-14 14:26:00,58.1,40.6,30.06,NNE,26,6.9,7.6,52,0.00,FEW,,0.00,WeatherDisplay:10.37,2013-05-14 21:26:00,
2013-05-14 14:31:00,57.7,39.7,30.06,NNE,27,11.5,11.5,51,0.00,FEW,,0.00,WeatherDisplay:10.37,2013-05-14 21:31:00,
2013-05-14 14:36:00,57.8,38.8,30.06,NE,49,9.2,9.2,49,0.00,FEW,,0.00,WeatherDisplay:10.37,2013-05-14 21:36:00,
2013-05-14 14:41:00,58.0,41.0,30.05,North,9,5.8,5.8,53,0.00,FEW,,0.00,WeatherDisplay:10.37,2013-05-14 21:41:00,
2013-05-14 14:46:00,58.5,41.4,30.04,NW,325,11.5,11.5,53,0.00,FEW,,0.00,WeatherDisplay:10.37,2013-05-14 21:46:00,
2013-05-14 14:51:00,58.6,41.0,30.04,NNW,341,12.7,12.7,52,0.00,FEW,,0.00,WeatherDisplay:10.37,2013-05-14 21:51:00,
2013-05-14 14:56:00,59.0,39.9,30.04,NNW,331,9.2,9.2,49,0.00,FEW,,0.00,WeatherDisplay:10.37,2013-05-14 21:56:00,
2013-05-14 15:01:00,59.2,40.0,30.05,NNW,334,11.5,11.5,49,0.00,FEW,,0.00,WeatherDisplay:10.37,2013-05-14 22:01:00,
2013-05-14 15:06:00,59.0,40.9,30.05,NNE,17,5.8,5.8,51,0.00,FEW,,0.00,WeatherDisplay:10.37,2013-05-14 22:06:00,
2013-05-14 15:11:00,59.0,40.9,30.04,North,355,8.1,8.1,51,0.00,FEW,,0.00,WeatherDisplay:10.37,2013-05-14 22:11:00,
2013-05-14 15:16:00,59.0,39.9,30.04,WNW,292,4.0,4.1,49,0.00,FEW,,0.00,WeatherDisplay:10.37,2013-05-14 22:16:00,
2013-05-14 15:21:00,59.0,40.4,30.04,NW,304,5.8,5.8,50,0.00,FEW,,0.00,WeatherDisplay:10.37,2013-05-14 22:21:00,
2013-05-14 15:27:00,58.8,40.2,30.04,North,349,9.2,9.2,50,0.00,FEW,,0.00,WeatherDisplay:10.37,2013-05-14 22:27:00,
2013-05-14 15:32:00,58.6,41.0,30.04,NW,311,9.2,9.2,52,0.00,FEW,,0.00,WeatherDisplay:10.37,2013-05-14 22:32:00,
2013-05-14 15:37:00,59.0,40.9,30.04,NNW,328,3.5,3.5,51,0.00,FEW,,0.00,WeatherDisplay:10.37,2013-05-14 22:37:00,
2013-05-14 15:42:00,59.1,39.9,30.04,NNW,342,10.4,10.4,49,0.00,FEW,,0.00,WeatherDisplay:10.37,2013-05-14 22:42:00,
2013-05-14 15:47:00,59.0,40.9,30.04,NNE,26,10.4,10.4,51,0.00,FEW,,0.00,WeatherDisplay:10.37,2013-05-14 22:47:00,
2013-05-14 15:52:00,59.0,41.4,30.04,North,5,5.0,5.0,52,0.00,FEW,,0.00,WeatherDisplay:10.37,2013-05-14 22:52:00,
2013-05-14 15:57:00,59.4,41.3,30.04,North,5,6.9,6.9,51,0.00,FEW,,0.00,WeatherDisplay:10.37,2013-05-14 22:57:00,
2013-05-14 16:02:00,59.5,40.8,30.04,NW,307,8.1,8.1,50,0.00,CLR,,0.00,WeatherDisplay:10.37,2013-05-14 23:02:00,
2013-05-14 16:07:00,59.4,40.7,30.04,NW,304,8.0,8.0,50,0.00,CLR,,0.00,WeatherDisplay:10.37,2013-05-14 23:07:00,
2013-05-14 16:12:00,59.4,40.7,30.04,North,10,10.4,10.4,50,0.00,CLR,,0.00,WeatherDisplay:10.37,2013-05-14 23:12:00,
2013-05-14 16:17:00,59.1,40.5,30.04,NW,325,5.8,5.8,50,0.00,CLR,,0.00,WeatherDisplay:10.37,2013-05-14 23:17:00,
2013-05-14 16:22:00,59.5,40.3,30.04,WNW,300,12.7,12.7,49,0.00,CLR,,0.00,WeatherDisplay:10.37,2013-05-14 23:22:00,
2013-05-14 16:27:00,59.5,40.3,30.04,NW,325,6.0,6.0,49,0.00,CLR,,0.00,WeatherDisplay:10.37,2013-05-14 23:27:00,
2013-05-14 16:32:00,59.5,40.3,30.03,WNW,289,9.2,9.2,49,0.00,CLR,,0.00,WeatherDisplay:10.37,2013-05-14 23:32:00,
2013-05-14 16:37:00,58.7,40.6,30.04,NW,323,3.5,3.5,51,0.00,CLR,,0.00,WeatherDisplay:10.37,2013-05-14 23:37:00,
2013-05-14 16:42:00,58.2,40.1,30.05,NW,322,3.5,3.5,51,0.00,CLR,,0.00,WeatherDisplay:10.37,2013-05-14 23:42:00,
2013-05-14 16:47:00,58.2,40.1,30.04,WNW,300,4.6,4.6,51,0.00,CLR,,0.00,WeatherDisplay:10.37,2013-05-14 23:47:00,
2013-05-14 16:52:00,58.9,41.3,30.03,WNW,301,6.9,6.9,52,0.00,CLR,,0.00,WeatherDisplay:10.37,2013-05-14 23:52:00,
2013-05-14 16:57:00,59.3,40.7,30.03,NW,315,4.6,4.6,50,0.00,CLR,,0.00,WeatherDisplay:10.37,2013-05-14 23:57:00,
2013-05-14 17:02:00,59.8,41.1,30.02,NW,314,4.0,4.0,50,0.00,CLR,,0.00,WeatherDisplay:10.37,2013-05-15 00:02:00,
2013-05-14 17:07:00,59.1,40.5,30.03,WNW,284,10.4,10.4,50,0.00,CLR,,0.00,WeatherDisplay:10.37,2013-05-15 00:07:00,
2013-05-14 17:12:00,59.0,40.4,30.03,NNW,327,5.0,5.0,50,0.00,CLR,,0.00,WeatherDisplay:10.37,2013-05-15 00:12:00,
2013-05-14 17:17:00,59.0,39.9,30.04,NW,315,8.1,8.1,49,0.00,CLR,,0.00,WeatherDisplay:10.37,2013-05-15 00:17:00,
2013-05-14 17:22:00,59.0,39.3,30.04,NNW,337,11.5,11.5,48,0.00,CLR,,0.00,WeatherDisplay:10.37,2013-05-15 00:22:00,
2013-05-14 17:27:00,58.4,40.3,30.03,NW,325,4.6,4.6,51,0.00,CLR,,0.00,WeatherDisplay:10.37,2013-05-15 00:27:00,
2013-05-14 17:32:00,58.4,39.8,30.03,NNW,346,3.5,3.5,50,0.00,CLR,,0.00,WeatherDisplay:10.37,2013-05-15 00:32:00,
2013-05-14 17:37:00,58.0,39.5,30.04,NNW,336,2.3,2.3,50,0.00,CLR,,0.00,WeatherDisplay:10.37,2013-05-15 00:37:00,
2013-05-14 17:42:00,57.3,39.3,30.04,NW,325,4.6,4.6,51,0.00,CLR,,0.00,WeatherDisplay:10.37,2013-05-15 00:42:00,
2013-05-14 17:47:00,56.5,39.1,30.04,NNW,342,1.1,1.1,52,0.00,CLR,,0.00,WeatherDisplay:10.37,2013-05-15 00:47:00,
2013-05-14 17:52:00,56.2,39.3,30.04,NNW,329,4.0,4.0,53,0.00,CLR,,0.00,WeatherDisplay:10.37,2013-05-15 00:52:00,
2013-05-14 17:57:00,56.0,38.6,30.04,NW,319,4.0,4.0,52,0.00,CLR,,0.00,WeatherDisplay:10.37,2013-05-15 00:57:00,
2013-05-14 18:02:00,55.7,38.8,30.02,NW,304,4.6,4.6,53,0.00,CLR,,0.00,WeatherDisplay:10.37,2013-05-15 01:02:00,
2013-05-14 18:07:00,55.5,39.1,30.02,NNW,331,3.5,3.5,54,0.00,CLR,,0.00,WeatherDisplay:10.37,2013-05-15 01:07:00,
2013-05-14 18:12:00,55.4,38.5,30.03,NW,323,4.0,4.0,53,0.00,CLR,,0.00,WeatherDisplay:10.37,2013-05-15 01:12:00,
2013-05-14 18:17:00,55.3,38.4,30.03,NW,319,5.8,5.8,53,0.00,CLR,,0.00,WeatherDisplay:10.37,2013-05-15 01:17:00,
2013-05-14 18:22:00,55.2,38.8,30.03,North,360,8.0,8.0,54,0.00,CLR,,0.00,WeatherDisplay:10.37,2013-05-15 01:22:00,
2013-05-14 18:27:00,55.0,38.6,30.03,NNW,330,3.5,3.5,54,0.00,CLR,,0.00,WeatherDisplay:10.37,2013-05-15 01:27:00,
2013-05-14 18:32:00,55.1,39.2,30.03,NNW,327,3.5,3.5,55,0.00,CLR,,0.00,WeatherDisplay:10.37,2013-05-15 01:32:00,
2013-05-14 18:37:00,55.0,38.2,30.03,WNW,289,6.9,6.9,53,0.00,CLR,,0.00,WeatherDisplay:10.37,2013-05-15 01:37:00,
2013-05-14 18:42:00,54.7,37.9,30.03,NW,318,6.9,6.9,53,0.00,CLR,,0.00,WeatherDisplay:10.37,2013-05-15 01:42:00,
2013-05-14 18:47:00,54.5,38.2,30.03,WNW,300,4.6,4.6,54,0.00,CLR,,0.00,WeatherDisplay:10.37,2013-05-15 01:47:00,
2013-05-14 18:52:00,54.2,37.9,30.03,NNW,341,3.5,3.5,54,0.00,CLR,,0.00,WeatherDisplay:10.37,2013-05-15 01:52:00,
2013-05-14 18:57:00,54.0,38.2,30.03,NNW,340,3.5,3.5,55,0.00,CLR,,0.00,WeatherDisplay:10.37,2013-05-15 01:57:00,
2013-05-14 19:02:00,53.9,38.6,30.03,NNW,340,3.5,3.5,56,0.00,CLR,,0.00,WeatherDisplay:10.37,2013-05-15 02:02:00,
2013-05-14 19:07:00,53.8,38.9,30.03,NNW,340,1.0,1.0,57,0.00,CLR,,0.00,WeatherDisplay:10.37,2013-05-15 02:07:00,
2013-05-14 19:12:00,53.8,38.0,30.03,NW,325,3.5,3.5,55,0.00,CLR,,0.00,WeatherDisplay:10.37,2013-05-15 02:12:00,
2013-05-14 19:17:00,53.8,38.0,30.03,NNW,336,3.5,3.5,55,0.00,CLR,,0.00,WeatherDisplay:10.37,2013-05-15 02:17:00,
2013-05-14 19:22:00,53.7,38.4,30.03,NW,318,2.3,2.3,56,0.00,CLR,,0.00,WeatherDisplay:10.37,2013-05-15 02:22:00,
2013-05-14 19:27:00,53.5,38.2,30.03,North,355,5.8,5.8,56,0.00,CLR,,0.00,WeatherDisplay:10.37,2013-05-15 02:27:00,
2013-05-14 19:32:00,53.2,37.9,30.03,NW,306,5.8,5.8,56,0.00,CLR,,0.00,WeatherDisplay:10.37,2013-05-15 02:32:00,
2013-05-14 19:38:00,52.9,37.6,30.03,NW,306,1.1,1.1,56,0.00,CLR,,0.00,WeatherDisplay:10.37,2013-05-15 02:38:00,
2013-05-14 19:43:00,52.7,37.9,30.03,NNW,334,1.1,0.0,57,0.00,CLR,,0.00,WeatherDisplay:10.37,2013-05-15 02:43:00,
2013-05-14 19:48:00,52.4,38.0,30.04,NNW,334,1.1,0.0,58,0.00,CLR,,0.00,WeatherDisplay:10.37,2013-05-15 02:48:00,
2013-05-14 19:53:00,52.0,37.7,30.04,NNW,334,0.0,0.0,58,0.00,CLR,,0.00,WeatherDisplay:10.37,2013-05-15 02:53:00,
2013-05-14 19:58:00,51.7,37.8,30.05,NNW,334,1.1,0.0,59,0.00,CLR,,0.00,WeatherDisplay:10.37,2013-05-15 02:58:00,
2013-05-14 20:03:00,51.4,37.5,30.04,NNW,334,0.0,0.0,59,0.00,CLR,,0.00,WeatherDisplay:10.37,2013-05-15 03:03:00,
2013-05-14 20:08:00,51.0,37.6,30.04,NNW,334,0.0,0.0,60,0.00,CLR,,0.00,WeatherDisplay:10.37,2013-05-15 03:08:00,
2013-05-14 20:13:00,50.6,37.2,30.04,NNW,334,0.0,0.0,60,0.00,CLR,,0.00,WeatherDisplay:10.37,2013-05-15 03:13:00,
2013-05-14 20:18:00,50.2,37.3,30.04,NNW,334,0.0,0.0,61,0.00,CLR,,0.00,WeatherDisplay:10.37,2013-05-15 03:18:00,
2013-05-14 20:23:00,49.8,37.3,30.04,NNW,334,0.0,0.0,62,0.00,CLR,,0.00,WeatherDisplay:10.37,2013-05-15 03:23:00,
2013-05-14 20:28:00,49.5,37.4,30.04,NNW,334,0.0,0.0,63,0.00,CLR,,0.00,WeatherDisplay:10.37,2013-05-15 03:28:00,
2013-05-14 20:33:00,49.2,37.1,30.05,NNW,334,0.0,0.0,63,0.00,CLR,,0.00,WeatherDisplay:10.37,2013-05-15 03:33:00,
2013-05-14 20:38:00,48.8,37.2,30.05,NNW,334,0.0,0.0,64,0.00,CLR,,0.00,WeatherDisplay:10.37,2013-05-15 03:38:00,
2013-05-14 20:43:00,48.5,37.3,30.05,NNW,334,0.0,0.0,65,0.00,CLR,,0.00,WeatherDisplay:10.37,2013-05-15 03:43:00,
2013-05-14 20:48:00,48.2,37.0,30.05,NNW,334,1.1,0.0,65,0.00,CLR,,0.00,WeatherDisplay:10.37,2013-05-15 03:48:00,
2013-05-14 20:53:00,48.0,37.2,30.05,NNW,334,0.0,0.0,66,0.00,CLR,,0.00,WeatherDisplay:10.37,2013-05-15 03:53:00,
2013-05-14 20:58:00,48.0,37.2,30.05,NNW,334,0.0,0.0,66,0.00,CLR,,0.00,WeatherDisplay:10.37,2013-05-15 03:58:00,
2013-05-14 21:01:00,48.0,37.2,30.05,NNW,334,0.0,0.0,66,0.00,CLR,,0.00,WeatherDisplay:10.37,2013-05-15 04:01:00,
2013-05-14 21:06:00,47.9,37.1,30.05,NNW,334,0.0,0.0,66,0.00,CLR,,0.00,WeatherDisplay:10.37,2013-05-15 04:06:00,
2013-05-14 21:11:00,47.6,37.2,30.05,NNW,334,0.0,0.0,67,0.00,CLR,,0.00,WeatherDisplay:10.37,2013-05-15 04:11:00,
2013-05-14 21:16:00,47.2,36.8,30.05,NNW,334,0.0,0.0,67,0.00,CLR,,0.00,WeatherDisplay:10.37,2013-05-15 04:16:00,
2013-05-14 21:21:00,46.8,36.8,30.05,NNW,334,0.0,0.0,68,0.00,CLR,,0.00,WeatherDisplay:10.37,2013-05-15 04:21:00,
2013-05-14 21:26:00,46.3,36.7,30.06,NNW,334,0.0,0.0,69,0.00,CLR,,0.00,WeatherDisplay:10.37,2013-05-15 04:26:00,
2013-05-14 21:31:00,45.4,36.5,30.07,NNW,334,0.0,0.0,71,0.00,CLR,,0.00,WeatherDisplay:10.37,2013-05-15 04:31:00,
2013-05-14 21:36:00,44.3,36.5,30.07,NNW,334,2.3,2.3,74,0.00,CLR,,0.00,WeatherDisplay:10.37,2013-05-15 04:36:00,
2013-05-14 21:41:00,43.4,36.3,30.07,NNW,334,2.3,2.3,76,0.00,CLR,,0.00,WeatherDisplay:10.37,2013-05-15 04:41:00,
2013-05-14 21:46:00,42.9,36.8,30.07,NNW,334,2.0,2.0,79,0.00,CLR,,0.00,WeatherDisplay:10.37,2013-05-15 04:46:00,
2013-05-14 21:51:00,42.6,36.5,30.07,NNW,334,2.3,2.3,79,0.00,CLR,,0.00,WeatherDisplay:10.37,2013-05-15 04:51:00,
2013-05-14 21:56:00,42.1,36.4,30.08,NNW,334,2.3,2.3,80,0.00,CLR,,0.00,WeatherDisplay:10.37,2013-05-15 04:56:00,
2013-05-14 22:01:00,42.0,36.0,30.08,NNW,334,3.5,3.5,79,0.00,CLR,,0.00,WeatherDisplay:10.37,2013-05-15 05:01:00,
2013-05-14 22:06:00,42.0,35.3,30.08,NNW,334,3.5,3.5,77,0.00,CLR,,0.00,WeatherDisplay:10.37,2013-05-15 05:06:00,
2013-05-14 22:11:00,41.5,34.8,30.08,NNW,334,3.5,3.5,77,0.00,CLR,,0.00,WeatherDisplay:10.37,2013-05-15 05:11:00,
2013-05-14 22:16:00,40.9,34.2,30.08,NNW,334,3.5,3.5,77,0.00,CLR,,0.00,WeatherDisplay:10.37,2013-05-15 05:16:00,
2013-05-14 22:21:00,40.6,34.3,30.08,NNW,334,2.3,2.3,78,0.00,CLR,,0.00,WeatherDisplay:10.37,2013-05-15 05:21:00,
2013-05-14 22:26:00,40.8,34.5,30.08,NNW,330,2.3,2.3,78,0.00,CLR,,0.00,WeatherDisplay:10.37,2013-05-15 05:26:00,
2013-05-14 22:31:00,41.1,34.4,30.08,NNW,331,2.3,2.3,77,0.00,CLR,,0.00,WeatherDisplay:10.37,2013-05-15 05:31:00,
2013-05-14 22:36:00,41.1,34.1,30.08,NNW,330,3.5,3.5,76,0.00,CLR,,0.00,WeatherDisplay:10.37,2013-05-15 05:36:00,
2013-05-14 22:41:00,40.8,34.1,30.08,NNW,331,2.3,2.3,77,0.00,CLR,,0.00,WeatherDisplay:10.37,2013-05-15 05:41:00,
2013-05-14 22:46:00,40.1,33.8,30.09,NNW,331,2.0,2.0,78,0.00,CLR,,0.00,WeatherDisplay:10.37,2013-05-15 05:46:00,
2013-05-14 22:51:00,39.5,33.8,30.08,NNW,331,2.3,2.3,80,0.00,CLR,,0.00,WeatherDisplay:10.37,2013-05-15 05:51:00,
2013-05-14 22:56:00,39.3,33.6,30.09,NNW,331,2.3,2.3,80,0.00,CLR,,0.00,WeatherDisplay:10.37,2013-05-15 05:56:00,
2013-05-14 23:01:00,39.1,33.8,30.08,NNW,331,2.3,2.3,81,0.00,CLR,,0.00,WeatherDisplay:10.37,2013-05-15 06:01:00,
2013-05-14 23:06:00,39.1,33.8,30.08,NNW,330,2.3,2.3,81,0.00,CLR,,0.00,WeatherDisplay:10.37,2013-05-15 06:06:00,
2013-05-14 23:11:00,38.9,33.3,30.09,NNW,331,2.3,2.3,80,0.00,CLR,,0.00,WeatherDisplay:10.37,2013-05-15 06:11:00,
2013-05-14 23:17:00,38.7,33.4,30.08,NNW,331,2.3,2.3,81,0.00,CLR,,0.00,WeatherDisplay:10.37,2013-05-15 06:17:00,
2013-05-14 23:22:00,38.8,33.5,30.08,NNW,331,3.5,3.5,81,0.00,CLR,,0.00,WeatherDisplay:10.37,2013-05-15 06:22:00,
2013-05-14 23:27:00,38.5,33.2,30.09,NNW,331,2.3,2.3,81,0.00,CLR,,0.00,WeatherDisplay:10.37,2013-05-15 06:27:00,
2013-05-14 23:32:00,38.1,33.1,30.09,NNW,330,3.5,3.5,82,0.00,CLR,,0.00,WeatherDisplay:10.37,2013-05-15 06:32:00,
2013-05-14 23:37:00,37.9,32.9,30.09,NNW,331,3.5,3.5,82,0.00,CLR,,0.00,WeatherDisplay:10.37,2013-05-15 06:37:00,
2013-05-14 23:42:00,37.8,32.8,30.09,NNW,331,3.5,3.5,82,0.00,CLR,,0.00,WeatherDisplay:10.37,2013-05-15 06:42:00,
2013-05-14 23:47:00,37.9,33.2,30.09,NNW,331,2.3,2.3,83,0.00,CLR,,0.00,WeatherDisplay:10.37,2013-05-15 06:47:00,
2013-05-14 23:52:00,37.9,32.9,30.09,NNW,330,2.3,2.3,82,0.00,CLR,,0.00,WeatherDisplay:10.37,2013-05-15 06:52:00,
2013-05-14 23:57:00,37.7,33.0,30.09,NNW,331,2.3,2.3,83,0.00,CLR,,0.00,WeatherDisplay:10.37,2013-05-15 06:57:00,